Bahri Yanbu — HZFH — position and weather

sailwx.info

Track history (hours):
 
Tides and Currents Weather Stations Pressure Air Temp Water Temp Dewpoint Dewpoint Depression Visibility Wind Speed Wind Dir Waves Ship Positions

Bahri Yanbu

Last reported at 2018-May-22 02:15 UTC. Time now 2018-Jun-23 07:46 UTC.
Position N 19°03' E 058°34'.
Warning: this ship's position is 32 days out of date.

Length 205 m; draft 8.3 m.

Type: Cargo ship. MMSI: 403532001.

Date/timePositionNaut miles runAvg speedWind from/ knotsBaromVisibWave heightAir tempDewpointWater temp
2018-May-22 02:15N 19°03' E 058°34'616.3
2018-May-22 01:55N 18°59' E 058°30'8216.6
2018-May-21 21:00N 17°52' E 057°40'917.2
2018-May-21 20:29N 17°45' E 057°34'6116.6
2018-May-21 16:48N 17°02' E 056°49'1216.3
2018-May-21 16:02N 16°54' E 056°39'116.3
2018-May-21 16:00N 16°54' E 056°38'916.4
2018-May-21 15:28N 16°49' E 056°31'916.3
2018-May-21 14:56N 16°44' E 056°23'716.5
2018-May-21 14:29N 16°39' E 056°17'  
Track history (hours):
 
Tides and Currents Weather Stations Pressure Air Temp Water Temp Dewpoint Dewpoint Depression Visibility Wind Speed Wind Dir Waves Ship Positions

Bahri Yanbu

Last reported at 2018-May-22 02:15 UTC. Time now 2018-Jun-23 07:46 UTC.
Position N 19°03' E 058°34'.
Warning: this ship's position is 32 days out of date.

Length 205 m; draft 8.3 m.

Type: Cargo ship. MMSI: 403532001.

Date/timePositionNaut miles runAvg speedWind from/ knotsBaromVisibWave heightAir tempDewpointWater temp
2018-May-22 02:15N 19°03' E 058°34'616.3
2018-May-22 01:55N 18°59' E 058°30'8216.6
2018-May-21 21:00N 17°52' E 057°40'917.2
2018-May-21 20:29N 17°45' E 057°34'6116.6
2018-May-21 16:48N 17°02' E 056°49'1216.3
2018-May-21 16:02N 16°54' E 056°39'116.3
2018-May-21 16:00N 16°54' E 056°38'916.4
2018-May-21 15:28N 16°49' E 056°31'916.3
2018-May-21 14:56N 16°44' E 056°23'716.5
2018-May-21 14:29N 16°39' E 056°17'  

Dump ship's entire track history